sensor_id;sensor_type;location;lat;lon;timestamp;temperature;humidity
59146;DHT22;44928;53.074;6.646;2023-05-21T00:01:12;14.80;99.90
59146;DHT22;44928;53.074;6.646;2023-05-21T00:03:42;14.80;99.90
59146;DHT22;44928;53.074;6.646;2023-05-21T00:06:10;14.80;99.90
59146;DHT22;44928;53.074;6.646;2023-05-21T00:08:38;14.80;99.90
59146;DHT22;44928;53.074;6.646;2023-05-21T00:11:04;14.80;99.90
59146;DHT22;44928;53.074;6.646;2023-05-21T00:13:30;14.80;99.90
59146;DHT22;44928;53.074;6.646;2023-05-21T00:15:56;14.80;99.90
59146;DHT22;44928;53.074;6.646;2023-05-21T00:18:21;14.80;99.90
59146;DHT22;44928;53.074;6.646;2023-05-21T00:20:50;14.80;99.90
59146;DHT22;44928;53.074;6.646;2023-05-21T00:23:15;14.80;99.90
59146;DHT22;44928;53.074;6.646;2023-05-21T00:25:44;14.80;99.90
59146;DHT22;44928;53.074;6.646;2023-05-21T00:28:10;14.80;99.90
59146;DHT22;44928;53.074;6.646;2023-05-21T00:30:35;14.80;99.90
59146;DHT22;44928;53.074;6.646;2023-05-21T00:33:01;14.70;99.90
59146;DHT22;44928;53.074;6.646;2023-05-21T00:35:27;14.70;99.90
59146;DHT22;44928;53.074;6.646;2023-05-21T00:37:54;14.70;99.90
59146;DHT22;44928;53.074;6.646;2023-05-21T00:40:19;14.70;99.90
59146;DHT22;44928;53.074;6.646;2023-05-21T00:42:45;14.70;99.90
59146;DHT22;44928;53.074;6.646;2023-05-21T00:45:12;14.70;99.90
59146;DHT22;44928;53.074;6.646;2023-05-21T00:47:40;14.70;99.90
59146;DHT22;44928;53.074;6.646;2023-05-21T00:50:07;14.70;99.90
59146;DHT22;44928;53.074;6.646;2023-05-21T00:52:33;14.60;99.90
59146;DHT22;44928;53.074;6.646;2023-05-21T00:55:06;14.70;99.90
59146;DHT22;44928;53.074;6.646;2023-05-21T00:57:34;14.60;99.90
59146;DHT22;44928;53.074;6.646;2023-05-21T01:00:02;14.60;99.90
59146;DHT22;44928;53.074;6.646;2023-05-21T01:02:29;14.60;99.90
59146;DHT22;44928;53.074;6.646;2023-05-21T01:04:57;14.60;99.90
59146;DHT22;44928;53.074;6.646;2023-05-21T01:07:24;14.60;99.90
59146;DHT22;44928;53.074;6.646;2023-05-21T01:09:50;14.60;99.90
59146;DHT22;44928;53.074;6.646;2023-05-21T01:12:17;14.60;99.90
59146;DHT22;44928;53.074;6.646;2023-05-21T01:14:43;14.60;99.90
59146;DHT22;44928;53.074;6.646;2023-05-21T01:17:09;14.60;99.90
59146;DHT22;44928;53.074;6.646;2023-05-21T01:19:35;14.50;99.90
59146;DHT22;44928;53.074;6.646;2023-05-21T01:22:05;14.50;99.90
59146;DHT22;44928;53.074;6.646;2023-05-21T01:24:32;14.50;99.90
59146;DHT22;44928;53.074;6.646;2023-05-21T01:27:00;14.50;99.90
59146;DHT22;44928;53.074;6.646;2023-05-21T01:29:26;14.50;99.90
59146;DHT22;44928;53.074;6.646;2023-05-21T01:34:44;14.50;99.90
59146;DHT22;44928;53.074;6.646;2023-05-21T01:37:18;14.50;99.90
59146;DHT22;44928;53.074;6.646;2023-05-21T01:39:51;14.40;99.90
59146;DHT22;44928;53.074;6.646;2023-05-21T01:42:21;14.40;99.90
59146;DHT22;44928;53.074;6.646;2023-05-21T01:44:51;14.40;99.90
59146;DHT22;44928;53.074;6.646;2023-05-21T01:47:20;14.40;99.90
59146;DHT22;44928;53.074;6.646;2023-05-21T01:49:46;14.40;99.90
59146;DHT22;44928;53.074;6.646;2023-05-21T01:52:12;14.40;99.90
59146;DHT22;44928;53.074;6.646;2023-05-21T01:54:38;14.40;99.90
59146;DHT22;44928;53.074;6.646;2023-05-21T01:57:04;14.30;99.90
59146;DHT22;44928;53.074;6.646;2023-05-21T01:59:30;14.30;99.90
59146;DHT22;44928;53.074;6.646;2023-05-21T02:01:55;14.30;99.90
59146;DHT22;44928;53.074;6.646;2023-05-21T02:04:21;14.20;99.90
59146;DHT22;44928;53.074;6.646;2023-05-21T02:06:47;14.20;99.90
59146;DHT22;44928;53.074;6.646;2023-05-21T02:09:12;14.10;99.90
59146;DHT22;44928;53.074;6.646;2023-05-21T02:11:38;14.10;99.90
59146;DHT22;44928;53.074;6.646;2023-05-21T02:14:04;14.10;99.90
59146;DHT22;44928;53.074;6.646;2023-05-21T02:16:29;14.10;99.90
59146;DHT22;44928;53.074;6.646;2023-05-21T02:18:56;14.10;99.90
59146;DHT22;44928;53.074;6.646;2023-05-21T02:21:22;14.10;99.90
59146;DHT22;44928;53.074;6.646;2023-05-21T02:23:48;14.10;99.90
59146;DHT22;44928;53.074;6.646;2023-05-21T02:26:14;14.10;99.90
59146;DHT22;44928;53.074;6.646;2023-05-21T02:28:41;14.10;99.90
59146;DHT22;44928;53.074;6.646;2023-05-21T02:31:07;14.10;99.90
59146;DHT22;44928;53.074;6.646;2023-05-21T02:33:33;14.10;99.90
59146;DHT22;44928;53.074;6.646;2023-05-21T02:35:58;14.10;99.90
59146;DHT22;44928;53.074;6.646;2023-05-21T02:38:24;14.10;99.90
59146;DHT22;44928;53.074;6.646;2023-05-21T02:40:50;14.10;99.90
59146;DHT22;44928;53.074;6.646;2023-05-21T02:43:16;14.10;99.90
59146;DHT22;44928;53.074;6.646;2023-05-21T02:45:42;14.10;99.90
59146;DHT22;44928;53.074;6.646;2023-05-21T02:48:07;14.10;99.90
59146;DHT22;44928;53.074;6.646;2023-05-21T02:50:33;14.10;99.90
59146;DHT22;44928;53.074;6.646;2023-05-21T02:52:59;14.10;99.90
59146;DHT22;44928;53.074;6.646;2023-05-21T02:55:25;14.10;99.90
59146;DHT22;44928;53.074;6.646;2023-05-21T02:57:50;14.10;99.90
59146;DHT22;44928;53.074;6.646;2023-05-21T03:00:16;14.10;99.90
59146;DHT22;44928;53.074;6.646;2023-05-21T03:02:42;14.10;99.90
59146;DHT22;44928;53.074;6.646;2023-05-21T03:05:08;14.00;99.90
59146;DHT22;44928;53.074;6.646;2023-05-21T03:07:34;14.00;99.90
59146;DHT22;44928;53.074;6.646;2023-05-21T03:09:59;14.00;99.90
59146;DHT22;44928;53.074;6.646;2023-05-21T03:12:25;14.00;99.90
59146;DHT22;44928;53.074;6.646;2023-05-21T03:14:52;14.00;99.90
59146;DHT22;44928;53.074;6.646;2023-05-21T03:17:17;14.00;99.90
59146;DHT22;44928;53.074;6.646;2023-05-21T03:19:43;14.00;99.90
59146;DHT22;44928;53.074;6.646;2023-05-21T03:22:09;14.00;99.90
59146;DHT22;44928;53.074;6.646;2023-05-21T03:24:38;14.00;99.90
59146;DHT22;44928;53.074;6.646;2023-05-21T03:27:06;14.00;99.90
59146;DHT22;44928;53.074;6.646;2023-05-21T03:29:33;13.90;99.90
59146;DHT22;44928;53.074;6.646;2023-05-21T03:31:59;13.90;99.90
59146;DHT22;44928;53.074;6.646;2023-05-21T03:34:25;13.90;99.90
59146;DHT22;44928;53.074;6.646;2023-05-21T03:36:51;13.90;99.90
59146;DHT22;44928;53.074;6.646;2023-05-21T03:39:17;13.90;99.90
59146;DHT22;44928;53.074;6.646;2023-05-21T03:41:43;13.90;99.90
59146;DHT22;44928;53.074;6.646;2023-05-21T03:44:08;13.90;99.90
59146;DHT22;44928;53.074;6.646;2023-05-21T03:46:34;13.90;99.90
59146;DHT22;44928;53.074;6.646;2023-05-21T03:49:00;13.90;99.90
59146;DHT22;44928;53.074;6.646;2023-05-21T03:51:26;13.80;99.90
59146;DHT22;44928;53.074;6.646;2023-05-21T03:53:52;13.80;99.90
59146;DHT22;44928;53.074;6.646;2023-05-21T03:56:18;13.80;99.90
59146;DHT22;44928;53.074;6.646;2023-05-21T03:58:44;13.80;99.90
59146;DHT22;44928;53.074;6.646;2023-05-21T04:01:10;13.80;99.90
59146;DHT22;44928;53.074;6.646;2023-05-21T04:03:35;13.80;99.90
59146;DHT22;44928;53.074;6.646;2023-05-21T04:06:02;13.80;99.90
59146;DHT22;44928;53.074;6.646;2023-05-21T04:08:28;13.80;99.90
59146;DHT22;44928;53.074;6.646;2023-05-21T04:10:54;13.80;99.90
59146;DHT22;44928;53.074;6.646;2023-05-21T04:13:20;13.80;99.90
59146;DHT22;44928;53.074;6.646;2023-05-21T04:15:45;13.80;99.90
59146;DHT22;44928;53.074;6.646;2023-05-21T04:18:12;13.80;99.90
59146;DHT22;44928;53.074;6.646;2023-05-21T04:20:42;13.80;99.90
59146;DHT22;44928;53.074;6.646;2023-05-21T04:23:07;13.80;99.90
59146;DHT22;44928;53.074;6.646;2023-05-21T04:25:33;13.80;99.90
59146;DHT22;44928;53.074;6.646;2023-05-21T04:27:59;13.80;99.90
59146;DHT22;44928;53.074;6.646;2023-05-21T04:30:25;13.90;99.90
59146;DHT22;44928;53.074;6.646;2023-05-21T04:32:51;13.80;99.90
59146;DHT22;44928;53.074;6.646;2023-05-21T04:35:17;13.90;99.90
59146;DHT22;44928;53.074;6.646;2023-05-21T04:37:43;13.90;99.90
59146;DHT22;44928;53.074;6.646;2023-05-21T04:40:11;13.90;99.90
59146;DHT22;44928;53.074;6.646;2023-05-21T04:42:43;13.90;99.90
59146;DHT22;44928;53.074;6.646;2023-05-21T04:45:10;13.90;99.90
59146;DHT22;44928;53.074;6.646;2023-05-21T04:47:36;13.90;99.90
59146;DHT22;44928;53.074;6.646;2023-05-21T04:50:02;13.90;99.90
59146;DHT22;44928;53.074;6.646;2023-05-21T04:52:29;13.90;99.90
59146;DHT22;44928;53.074;6.646;2023-05-21T04:54:55;13.90;99.90
59146;DHT22;44928;53.074;6.646;2023-05-21T04:57:22;13.90;99.90
59146;DHT22;44928;53.074;6.646;2023-05-21T04:59:49;13.90;99.90
59146;DHT22;44928;53.074;6.646;2023-05-21T05:02:15;13.90;99.90
59146;DHT22;44928;53.074;6.646;2023-05-21T05:04:41;13.90;99.90
59146;DHT22;44928;53.074;6.646;2023-05-21T05:07:08;13.90;99.90
59146;DHT22;44928;53.074;6.646;2023-05-21T05:09:34;14.00;99.90
59146;DHT22;44928;53.074;6.646;2023-05-21T05:12:00;14.00;99.90
59146;DHT22;44928;53.074;6.646;2023-05-21T05:14:26;14.00;99.90
59146;DHT22;44928;53.074;6.646;2023-05-21T05:16:52;14.00;99.90
59146;DHT22;44928;53.074;6.646;2023-05-21T05:19:19;14.00;99.90
59146;DHT22;44928;53.074;6.646;2023-05-21T05:21:45;14.00;99.90
59146;DHT22;44928;53.074;6.646;2023-05-21T05:24:10;14.00;99.90
59146;DHT22;44928;53.074;6.646;2023-05-21T05:26:36;14.10;99.90
59146;DHT22;44928;53.074;6.646;2023-05-21T05:29:02;14.10;99.90
59146;DHT22;44928;53.074;6.646;2023-05-21T05:31:28;14.10;99.90
59146;DHT22;44928;53.074;6.646;2023-05-21T05:33:54;14.10;99.90
59146;DHT22;44928;53.074;6.646;2023-05-21T05:36:20;14.10;99.90
59146;DHT22;44928;53.074;6.646;2023-05-21T05:38:45;14.10;99.90
59146;DHT22;44928;53.074;6.646;2023-05-21T05:41:11;14.10;99.90
59146;DHT22;44928;53.074;6.646;2023-05-21T05:43:37;14.10;99.90
59146;DHT22;44928;53.074;6.646;2023-05-21T05:46:02;14.10;99.90
59146;DHT22;44928;53.074;6.646;2023-05-21T05:48:28;14.10;99.90
59146;DHT22;44928;53.074;6.646;2023-05-21T05:50:54;14.20;99.90
59146;DHT22;44928;53.074;6.646;2023-05-21T05:53:21;14.20;99.90
59146;DHT22;44928;53.074;6.646;2023-05-21T05:55:47;14.20;99.90
59146;DHT22;44928;53.074;6.646;2023-05-21T05:58:13;14.20;99.90
59146;DHT22;44928;53.074;6.646;2023-05-21T06:00:38;14.20;99.90
59146;DHT22;44928;53.074;6.646;2023-05-21T06:03:04;14.20;99.90
59146;DHT22;44928;53.074;6.646;2023-05-21T06:05:30;14.20;99.90
59146;DHT22;44928;53.074;6.646;2023-05-21T06:07:56;14.30;99.90
59146;DHT22;44928;53.074;6.646;2023-05-21T06:10:22;14.30;99.90
59146;DHT22;44928;53.074;6.646;2023-05-21T06:12:47;14.30;99.90
59146;DHT22;44928;53.074;6.646;2023-05-21T06:15:13;14.40;99.90
59146;DHT22;44928;53.074;6.646;2023-05-21T06:17:41;14.40;99.90
59146;DHT22;44928;53.074;6.646;2023-05-21T06:20:10;14.50;99.90
59146;DHT22;44928;53.074;6.646;2023-05-21T06:22:36;14.50;99.90
59146;DHT22;44928;53.074;6.646;2023-05-21T06:25:03;14.50;99.90
59146;DHT22;44928;53.074;6.646;2023-05-21T06:27:29;14.60;99.90
59146;DHT22;44928;53.074;6.646;2023-05-21T06:29:55;14.60;99.90
59146;DHT22;44928;53.074;6.646;2023-05-21T06:32:23;14.60;99.90
59146;DHT22;44928;53.074;6.646;2023-05-21T06:34:49;14.60;99.90
59146;DHT22;44928;53.074;6.646;2023-05-21T06:37:18;14.60;99.90
59146;DHT22;44928;53.074;6.646;2023-05-21T06:39:45;14.70;99.90
59146;DHT22;44928;53.074;6.646;2023-05-21T06:42:10;14.60;99.90
59146;DHT22;44928;53.074;6.646;2023-05-21T06:44:36;14.60;99.90
59146;DHT22;44928;53.074;6.646;2023-05-21T06:47:02;14.60;99.90
59146;DHT22;44928;53.074;6.646;2023-05-21T06:49:28;14.60;99.90
59146;DHT22;44928;53.074;6.646;2023-05-21T06:51:53;14.70;99.90
59146;DHT22;44928;53.074;6.646;2023-05-21T06:54:19;14.70;99.90
59146;DHT22;44928;53.074;6.646;2023-05-21T06:56:45;14.60;99.90
59146;DHT22;44928;53.074;6.646;2023-05-21T06:59:10;14.70;99.90
59146;DHT22;44928;53.074;6.646;2023-05-21T07:01:36;14.70;99.90
59146;DHT22;44928;53.074;6.646;2023-05-21T07:04:02;14.70;99.90
59146;DHT22;44928;53.074;6.646;2023-05-21T07:06:28;14.70;99.90
59146;DHT22;44928;53.074;6.646;2023-05-21T07:08:53;14.80;99.90
59146;DHT22;44928;53.074;6.646;2023-05-21T07:11:19;14.80;99.90
59146;DHT22;44928;53.074;6.646;2023-05-21T07:13:45;14.80;99.90
59146;DHT22;44928;53.074;6.646;2023-05-21T07:16:11;14.90;99.90
59146;DHT22;44928;53.074;6.646;2023-05-21T07:18:37;14.80;99.90
59146;DHT22;44928;53.074;6.646;2023-05-21T07:21:03;14.90;99.90
59146;DHT22;44928;53.074;6.646;2023-05-21T07:23:28;14.90;99.90
59146;DHT22;44928;53.074;6.646;2023-05-21T07:25:55;15.00;99.90
59146;DHT22;44928;53.074;6.646;2023-05-21T07:28:21;15.00;99.90
59146;DHT22;44928;53.074;6.646;2023-05-21T07:30:47;15.10;99.90
59146;DHT22;44928;53.074;6.646;2023-05-21T07:33:13;15.10;99.90
59146;DHT22;44928;53.074;6.646;2023-05-21T07:35:38;15.10;99.90
59146;DHT22;44928;53.074;6.646;2023-05-21T07:38:04;15.20;99.90
59146;DHT22;44928;53.074;6.646;2023-05-21T07:40:30;15.20;99.90
59146;DHT22;44928;53.074;6.646;2023-05-21T07:42:56;15.30;99.90
59146;DHT22;44928;53.074;6.646;2023-05-21T07:45:21;15.30;99.90
59146;DHT22;44928;53.074;6.646;2023-05-21T07:47:47;15.30;99.90
59146;DHT22;44928;53.074;6.646;2023-05-21T07:50:13;15.40;99.90
59146;DHT22;44928;53.074;6.646;2023-05-21T07:52:39;15.40;99.90
59146;DHT22;44928;53.074;6.646;2023-05-21T07:55:05;15.50;99.90
59146;DHT22;44928;53.074;6.646;2023-05-21T07:57:31;15.50;99.90
59146;DHT22;44928;53.074;6.646;2023-05-21T07:59:57;15.60;99.90
59146;DHT22;44928;53.074;6.646;2023-05-21T08:02:23;15.60;99.90
59146;DHT22;44928;53.074;6.646;2023-05-21T08:04:48;15.60;99.90
59146;DHT22;44928;53.074;6.646;2023-05-21T08:07:14;15.60;99.90
59146;DHT22;44928;53.074;6.646;2023-05-21T08:09:44;15.70;99.90
59146;DHT22;44928;53.074;6.646;2023-05-21T08:12:10;15.70;99.90
59146;DHT22;44928;53.074;6.646;2023-05-21T08:14:40;15.80;99.90
59146;DHT22;44928;53.074;6.646;2023-05-21T08:17:08;15.80;99.90
59146;DHT22;44928;53.074;6.646;2023-05-21T08:19:35;15.90;99.90
59146;DHT22;44928;53.074;6.646;2023-05-21T08:22:01;15.90;99.90
59146;DHT22;44928;53.074;6.646;2023-05-21T08:24:27;15.90;99.90
59146;DHT22;44928;53.074;6.646;2023-05-21T08:26:53;16.00;99.90
59146;DHT22;44928;53.074;6.646;2023-05-21T08:29:19;16.00;99.90
59146;DHT22;44928;53.074;6.646;2023-05-21T08:31:45;16.00;99.90
59146;DHT22;44928;53.074;6.646;2023-05-21T08:34:10;16.00;99.90
59146;DHT22;44928;53.074;6.646;2023-05-21T08:36:36;16.10;99.90
59146;DHT22;44928;53.074;6.646;2023-05-21T08:39:03;16.10;99.90
59146;DHT22;44928;53.074;6.646;2023-05-21T08:41:30;16.20;99.90
59146;DHT22;44928;53.074;6.646;2023-05-21T08:44:00;16.30;99.90
59146;DHT22;44928;53.074;6.646;2023-05-21T08:46:31;16.30;99.90
59146;DHT22;44928;53.074;6.646;2023-05-21T08:48:58;16.40;99.90
59146;DHT22;44928;53.074;6.646;2023-05-21T08:51:26;16.50;99.90
59146;DHT22;44928;53.074;6.646;2023-05-21T08:53:52;16.60;99.90
59146;DHT22;44928;53.074;6.646;2023-05-21T08:56:20;16.70;99.90
59146;DHT22;44928;53.074;6.646;2023-05-21T08:58:46;16.80;99.90
59146;DHT22;44928;53.074;6.646;2023-05-21T09:01:11;16.90;99.90
59146;DHT22;44928;53.074;6.646;2023-05-21T09:03:39;17.10;99.90
59146;DHT22;44928;53.074;6.646;2023-05-21T09:06:14;17.10;99.90
59146;DHT22;44928;53.074;6.646;2023-05-21T09:08:44;17.30;99.90
59146;DHT22;44928;53.074;6.646;2023-05-21T09:11:10;17.30;99.90
59146;DHT22;44928;53.074;6.646;2023-05-21T09:13:37;17.50;99.90
59146;DHT22;44928;53.074;6.646;2023-05-21T09:16:03;17.50;99.90
59146;DHT22;44928;53.074;6.646;2023-05-21T09:18:30;17.60;99.90
59146;DHT22;44928;53.074;6.646;2023-05-21T09:20:55;17.60;99.90
59146;DHT22;44928;53.074;6.646;2023-05-21T09:23:21;17.70;99.90
59146;DHT22;44928;53.074;6.646;2023-05-21T09:25:48;17.60;99.90
59146;DHT22;44928;53.074;6.646;2023-05-21T09:28:17;17.60;99.90
59146;DHT22;44928;53.074;6.646;2023-05-21T09:30:47;17.60;99.90
59146;DHT22;44928;53.074;6.646;2023-05-21T09:33:24;17.60;99.90
59146;DHT22;44928;53.074;6.646;2023-05-21T09:35:50;17.70;99.90
59146;DHT22;44928;53.074;6.646;2023-05-21T09:38:16;17.80;99.90
59146;DHT22;44928;53.074;6.646;2023-05-21T09:40:43;17.80;99.90
59146;DHT22;44928;53.074;6.646;2023-05-21T09:43:15;17.90;99.90
59146;DHT22;44928;53.074;6.646;2023-05-21T09:45:54;17.90;99.90
59146;DHT22;44928;53.074;6.646;2023-05-21T09:48:42;17.90;99.90
59146;DHT22;44928;53.074;6.646;2023-05-21T09:51:14;18.00;99.90
59146;DHT22;44928;53.074;6.646;2023-05-21T09:53:43;18.00;99.90
59146;DHT22;44928;53.074;6.646;2023-05-21T09:56:12;18.00;99.90
59146;DHT22;44928;53.074;6.646;2023-05-21T09:58:38;18.20;99.90
59146;DHT22;44928;53.074;6.646;2023-05-21T10:01:05;18.20;99.90
59146;DHT22;44928;53.074;6.646;2023-05-21T10:03:32;18.40;99.90
59146;DHT22;44928;53.074;6.646;2023-05-21T10:06:02;18.50;99.90
59146;DHT22;44928;53.074;6.646;2023-05-21T10:08:30;18.60;99.90
59146;DHT22;44928;53.074;6.646;2023-05-21T10:10:58;18.70;99.90
59146;DHT22;44928;53.074;6.646;2023-05-21T10:13:24;18.70;99.90
59146;DHT22;44928;53.074;6.646;2023-05-21T10:15:58;18.80;99.90
59146;DHT22;44928;53.074;6.646;2023-05-21T10:18:26;18.90;99.90
59146;DHT22;44928;53.074;6.646;2023-05-21T10:20:53;19.00;99.90
59146;DHT22;44928;53.074;6.646;2023-05-21T10:23:19;19.10;99.90
59146;DHT22;44928;53.074;6.646;2023-05-21T10:25:48;19.20;99.90
59146;DHT22;44928;53.074;6.646;2023-05-21T10:28:15;19.40;99.90
59146;DHT22;44928;53.074;6.646;2023-05-21T10:30:42;19.50;99.90
59146;DHT22;44928;53.074;6.646;2023-05-21T10:33:09;19.70;99.90
59146;DHT22;44928;53.074;6.646;2023-05-21T10:35:37;19.80;99.90
59146;DHT22;44928;53.074;6.646;2023-05-21T10:38:07;20.00;99.90
59146;DHT22;44928;53.074;6.646;2023-05-21T10:40:34;20.10;99.90
59146;DHT22;44928;53.074;6.646;2023-05-21T10:43:17;20.30;99.90
59146;DHT22;44928;53.074;6.646;2023-05-21T10:46:17;20.40;99.90
59146;DHT22;44928;53.074;6.646;2023-05-21T10:51:55;20.70;99.90
59146;DHT22;44928;53.074;6.646;2023-05-21T10:54:38;20.80;99.90
59146;DHT22;44928;53.074;6.646;2023-05-21T10:59:53;21.00;99.90
59146;DHT22;44928;53.074;6.646;2023-05-21T11:02:20;21.10;99.90
59146;DHT22;44928;53.074;6.646;2023-05-21T11:04:57;21.30;99.90
59146;DHT22;44928;53.074;6.646;2023-05-21T11:07:49;21.40;99.90
59146;DHT22;44928;53.074;6.646;2023-05-21T11:10:30;21.50;99.90
59146;DHT22;44928;53.074;6.646;2023-05-21T11:13:13;21.70;99.90
59146;DHT22;44928;53.074;6.646;2023-05-21T11:21:14;21.80;99.90
59146;DHT22;44928;53.074;6.646;2023-05-21T11:26:18;21.80;99.90
59146;DHT22;44928;53.074;6.646;2023-05-21T11:31:31;21.70;99.90
59146;DHT22;44928;53.074;6.646;2023-05-21T11:34:13;21.60;99.90
59146;DHT22;44928;53.074;6.646;2023-05-21T11:36:40;21.60;99.90
59146;DHT22;44928;53.074;6.646;2023-05-21T11:39:16;21.70;99.90
59146;DHT22;44928;53.074;6.646;2023-05-21T11:42:00;21.80;99.90
59146;DHT22;44928;53.074;6.646;2023-05-21T11:44:39;21.80;99.90
59146;DHT22;44928;53.074;6.646;2023-05-21T11:47:06;21.90;99.90
59146;DHT22;44928;53.074;6.646;2023-05-21T11:49:34;21.80;99.90
59146;DHT22;44928;53.074;6.646;2023-05-21T11:52:04;21.90;99.90
59146;DHT22;44928;53.074;6.646;2023-05-21T11:54:31;22.00;99.90
59146;DHT22;44928;53.074;6.646;2023-05-21T11:57:05;22.20;99.90
59146;DHT22;44928;53.074;6.646;2023-05-21T11:59:35;22.40;99.90
59146;DHT22;44928;53.074;6.646;2023-05-21T12:02:02;22.50;99.90
59146;DHT22;44928;53.074;6.646;2023-05-21T12:04:32;22.60;99.90
59146;DHT22;44928;53.074;6.646;2023-05-21T12:07:10;22.60;99.90
59146;DHT22;44928;53.074;6.646;2023-05-21T12:09:45;22.80;99.90
59146;DHT22;44928;53.074;6.646;2023-05-21T12:12:13;22.90;99.90
59146;DHT22;44928;53.074;6.646;2023-05-21T12:14:43;23.00;99.90
59146;DHT22;44928;53.074;6.646;2023-05-21T12:17:10;23.10;99.90
59146;DHT22;44928;53.074;6.646;2023-05-21T12:19:40;23.10;99.90
59146;DHT22;44928;53.074;6.646;2023-05-21T12:22:06;23.10;99.90
59146;DHT22;44928;53.074;6.646;2023-05-21T12:24:33;23.10;99.90
59146;DHT22;44928;53.074;6.646;2023-05-21T12:27:00;23.10;99.90
59146;DHT22;44928;53.074;6.646;2023-05-21T12:29:29;23.00;99.90
59146;DHT22;44928;53.074;6.646;2023-05-21T12:31:59;23.00;99.90
59146;DHT22;44928;53.074;6.646;2023-05-21T12:34:44;23.00;99.90
59146;DHT22;44928;53.074;6.646;2023-05-21T12:39:50;22.90;99.90
59146;DHT22;44928;53.074;6.646;2023-05-21T12:42:22;22.90;99.90
59146;DHT22;44928;53.074;6.646;2023-05-21T12:44:48;22.80;99.90
59146;DHT22;44928;53.074;6.646;2023-05-21T12:47:16;22.80;99.90
59146;DHT22;44928;53.074;6.646;2023-05-21T12:49:44;22.80;99.90
59146;DHT22;44928;53.074;6.646;2023-05-21T12:52:13;22.70;99.90
59146;DHT22;44928;53.074;6.646;2023-05-21T12:54:41;22.70;99.90
59146;DHT22;44928;53.074;6.646;2023-05-21T12:57:12;22.60;99.90
59146;DHT22;44928;53.074;6.646;2023-05-21T12:59:51;22.50;99.90
59146;DHT22;44928;53.074;6.646;2023-05-21T13:04:46;22.40;99.90
59146;DHT22;44928;53.074;6.646;2023-05-21T13:07:14;22.40;99.90
59146;DHT22;44928;53.074;6.646;2023-05-21T13:09:41;22.40;99.90
59146;DHT22;44928;53.074;6.646;2023-05-21T13:12:07;22.40;99.90
59146;DHT22;44928;53.074;6.646;2023-05-21T13:14:33;22.40;99.90
59146;DHT22;44928;53.074;6.646;2023-05-21T13:17:00;22.50;99.90
59146;DHT22;44928;53.074;6.646;2023-05-21T13:19:27;22.50;99.90
59146;DHT22;44928;53.074;6.646;2023-05-21T13:21:52;22.50;99.90
59146;DHT22;44928;53.074;6.646;2023-05-21T13:24:18;22.50;99.90
59146;DHT22;44928;53.074;6.646;2023-05-21T13:26:44;22.50;99.90
59146;DHT22;44928;53.074;6.646;2023-05-21T13:29:09;22.50;99.90
59146;DHT22;44928;53.074;6.646;2023-05-21T13:31:41;22.60;99.90
59146;DHT22;44928;53.074;6.646;2023-05-21T13:34:11;22.60;99.90
59146;DHT22;44928;53.074;6.646;2023-05-21T13:36:38;22.60;99.90
59146;DHT22;44928;53.074;6.646;2023-05-21T13:39:04;22.60;99.90
59146;DHT22;44928;53.074;6.646;2023-05-21T13:41:30;22.60;99.90
59146;DHT22;44928;53.074;6.646;2023-05-21T13:43:57;22.50;99.90
59146;DHT22;44928;53.074;6.646;2023-05-21T13:46:23;22.60;99.90
59146;DHT22;44928;53.074;6.646;2023-05-21T13:48:49;22.60;99.90
59146;DHT22;44928;53.074;6.646;2023-05-21T13:51:15;22.70;99.90
59146;DHT22;44928;53.074;6.646;2023-05-21T13:53:41;22.70;99.90
59146;DHT22;44928;53.074;6.646;2023-05-21T13:56:06;22.80;99.90
59146;DHT22;44928;53.074;6.646;2023-05-21T13:58:32;22.80;99.90
59146;DHT22;44928;53.074;6.646;2023-05-21T14:01:00;22.90;99.90
59146;DHT22;44928;53.074;6.646;2023-05-21T14:03:26;23.00;99.90
59146;DHT22;44928;53.074;6.646;2023-05-21T14:05:52;23.20;99.90
59146;DHT22;44928;53.074;6.646;2023-05-21T14:08:19;23.30;99.90
59146;DHT22;44928;53.074;6.646;2023-05-21T14:10:46;23.40;99.90
59146;DHT22;44928;53.074;6.646;2023-05-21T14:13:12;23.50;99.90
59146;DHT22;44928;53.074;6.646;2023-05-21T14:15:38;23.60;99.90
59146;DHT22;44928;53.074;6.646;2023-05-21T14:18:04;23.80;99.90
59146;DHT22;44928;53.074;6.646;2023-05-21T14:20:33;24.00;99.90
59146;DHT22;44928;53.074;6.646;2023-05-21T14:22:58;24.10;99.90
59146;DHT22;44928;53.074;6.646;2023-05-21T14:25:24;24.20;99.90
59146;DHT22;44928;53.074;6.646;2023-05-21T14:27:51;24.40;99.90
59146;DHT22;44928;53.074;6.646;2023-05-21T14:30:17;24.40;99.90
59146;DHT22;44928;53.074;6.646;2023-05-21T14:32:43;24.50;99.90
59146;DHT22;44928;53.074;6.646;2023-05-21T14:35:09;24.60;99.90
59146;DHT22;44928;53.074;6.646;2023-05-21T14:37:34;24.60;99.90
59146;DHT22;44928;53.074;6.646;2023-05-21T14:40:00;24.60;99.90
59146;DHT22;44928;53.074;6.646;2023-05-21T14:42:26;24.60;99.90
59146;DHT22;44928;53.074;6.646;2023-05-21T14:44:52;24.60;99.90
59146;DHT22;44928;53.074;6.646;2023-05-21T14:47:17;24.50;99.90
59146;DHT22;44928;53.074;6.646;2023-05-21T14:49:43;24.40;99.90
59146;DHT22;44928;53.074;6.646;2023-05-21T14:52:09;24.30;99.90
59146;DHT22;44928;53.074;6.646;2023-05-21T14:54:36;24.20;99.90
59146;DHT22;44928;53.074;6.646;2023-05-21T14:57:01;24.20;99.90
59146;DHT22;44928;53.074;6.646;2023-05-21T14:59:27;24.00;99.90
59146;DHT22;44928;53.074;6.646;2023-05-21T15:01:53;23.90;99.90
59146;DHT22;44928;53.074;6.646;2023-05-21T15:04:18;23.80;99.90
59146;DHT22;44928;53.074;6.646;2023-05-21T15:06:44;23.80;99.90
59146;DHT22;44928;53.074;6.646;2023-05-21T15:09:10;23.80;99.90
59146;DHT22;44928;53.074;6.646;2023-05-21T15:11:36;23.80;99.90
59146;DHT22;44928;53.074;6.646;2023-05-21T15:14:03;23.70;99.90
59146;DHT22;44928;53.074;6.646;2023-05-21T15:16:28;23.70;99.90
59146;DHT22;44928;53.074;6.646;2023-05-21T15:18:54;23.70;99.90
59146;DHT22;44928;53.074;6.646;2023-05-21T15:21:21;23.60;99.90
59146;DHT22;44928;53.074;6.646;2023-05-21T15:23:46;23.60;99.90
59146;DHT22;44928;53.074;6.646;2023-05-21T15:26:12;23.60;99.90
59146;DHT22;44928;53.074;6.646;2023-05-21T15:28:38;23.50;99.90
59146;DHT22;44928;53.074;6.646;2023-05-21T15:31:03;23.50;99.90
59146;DHT22;44928;53.074;6.646;2023-05-21T15:33:29;23.50;99.90
59146;DHT22;44928;53.074;6.646;2023-05-21T15:35:55;23.40;99.90
59146;DHT22;44928;53.074;6.646;2023-05-21T15:38:21;23.40;99.90
59146;DHT22;44928;53.074;6.646;2023-05-21T15:40:46;23.40;99.90
59146;DHT22;44928;53.074;6.646;2023-05-21T15:43:12;23.40;99.90
59146;DHT22;44928;53.074;6.646;2023-05-21T15:45:38;23.40;99.90
59146;DHT22;44928;53.074;6.646;2023-05-21T15:48:04;23.50;99.90
59146;DHT22;44928;53.074;6.646;2023-05-21T15:50:30;23.40;99.90
59146;DHT22;44928;53.074;6.646;2023-05-21T15:52:55;23.40;99.90
59146;DHT22;44928;53.074;6.646;2023-05-21T15:55:21;23.40;99.90